createdAt,value
2016-07-12T00:00:12.413Z,20.61
2016-07-12T00:01:12.439Z,20.62
2016-07-12T00:03:12.494Z,20.41
2016-07-12T00:04:12.527Z,20.41
2016-07-12T00:05:12.551Z,20.39
2016-07-12T00:06:12.573Z,20.42
2016-07-12T00:07:27.516Z,20.47
2016-07-12T00:08:12.633Z,20.47
2016-07-12T00:09:12.666Z,20.64
2016-07-12T00:10:12.690Z,20.5
2016-07-12T00:11:12.719Z,20.52
2016-07-12T00:12:12.747Z,20.54
2016-07-12T00:13:12.774Z,20.52
2016-07-12T00:14:12.808Z,20.42
2016-07-12T00:15:12.832Z,20.39
2016-07-12T00:16:12.853Z,20.51
2016-07-12T00:17:12.878Z,20.55
2016-07-12T00:19:12.939Z,20.61
2016-07-12T00:20:12.972Z,20.64
2016-07-12T00:21:12.999Z,20.66
2016-07-12T00:22:27.941Z,20.69
2016-07-12T00:23:13.053Z,20.73
2016-07-12T00:24:13.081Z,20.72
2016-07-12T00:25:13.112Z,20.62
2016-07-12T00:26:13.132Z,20.61
2016-07-12T00:27:13.162Z,20.58
2016-07-12T00:28:13.197Z,20.62
2016-07-12T00:29:13.219Z,20.72
2016-07-12T00:31:13.276Z,20.69
2016-07-12T00:32:13.306Z,20.69
2016-07-12T00:33:13.334Z,20.77
2016-07-12T00:34:13.371Z,20.62
2016-07-12T00:35:13.394Z,20.72
2016-07-12T00:36:13.418Z,20.7
2016-07-12T00:37:13.443Z,20.61
2016-07-12T00:38:13.472Z,20.61
2016-07-12T00:39:13.498Z,20.74
2016-07-12T00:40:13.528Z,20.76
2016-07-12T00:41:13.562Z,20.76
2016-07-12T00:42:28.498Z,20.82
2016-07-12T00:43:13.617Z,20.82
2016-07-12T00:44:13.638Z,20.74
2016-07-12T00:45:13.665Z,20.72
2016-07-12T00:46:13.689Z,20.73
2016-07-12T00:47:13.728Z,20.76
2016-07-12T00:48:13.749Z,20.85
2016-07-12T00:49:13.780Z,20.8
2016-07-12T00:51:13.883Z,20.64
2016-07-12T00:52:13.862Z,20.67
2016-07-12T00:53:13.890Z,20.62
2016-07-12T00:54:28.833Z,20.64
2016-07-12T00:55:28.861Z,20.58
2016-07-12T00:56:13.970Z,20.62
2016-07-12T00:57:13.998Z,20.64
2016-07-12T00:58:14.028Z,20.55
2016-07-12T00:59:14.052Z,20.64
2016-07-12T01:02:14.138Z,20.67
2016-07-12T01:03:14.168Z,20.66
2016-07-12T01:04:14.197Z,20.61
2016-07-12T01:05:14.215Z,20.58
2016-07-12T01:06:14.248Z,20.59
2016-07-12T01:07:14.276Z,20.52
2016-07-12T01:08:14.307Z,20.54
2016-07-12T01:09:14.333Z,20.62
2016-07-12T01:10:29.276Z,20.61
2016-07-12T01:11:14.388Z,20.59
2016-07-12T01:12:14.417Z,20.62
2016-07-12T01:13:14.443Z,20.7
2016-07-12T01:14:14.471Z,20.72
2016-07-12T01:15:14.500Z,20.72
2016-07-12T01:16:14.527Z,20.69
2016-07-12T01:17:14.552Z,20.67
2016-07-12T01:18:14.586Z,20.62
2016-07-12T01:19:14.614Z,20.48
2016-07-12T01:20:14.634Z,20.51
2016-07-12T01:21:14.662Z,20.52
2016-07-12T01:22:14.691Z,20.51
2016-07-12T01:23:14.719Z,20.42
2016-07-12T01:24:14.748Z,20.42
2016-07-12T01:25:14.783Z,20.42
2016-07-12T01:26:29.720Z,20.41
2016-07-12T01:27:14.839Z,20.38
2016-07-12T01:28:14.851Z,20.33
2016-07-12T01:29:14.884Z,20.29
2016-07-12T01:30:14.917Z,20.24
2016-07-12T01:32:29.883Z,20.28
2016-07-12T01:34:15.725Z,20.18
2016-07-12T01:35:15.051Z,20.2
2016-07-12T01:36:15.079Z,20.31
2016-07-12T01:37:15.109Z,20.33
2016-07-12T01:38:15.138Z,20.28
2016-07-12T01:39:15.880Z,20.2
2016-07-12T01:40:15.193Z,20.26
2016-07-12T01:41:15.218Z,20.36
2016-07-12T01:42:30.164Z,20.21
2016-07-12T01:43:15.278Z,20.28
2016-07-12T01:44:15.300Z,20.18
2016-07-12T01:45:15.331Z,20.28
2016-07-12T01:46:16.053Z,20.24
2016-07-12T01:47:15.385Z,20.24
2016-07-12T01:48:30.326Z,20.18
2016-07-12T01:49:30.352Z,20.14
2016-07-12T01:50:15.471Z,20.17
2016-07-12T01:51:15.491Z,20.14
2016-07-12T01:52:15.520Z,20.16
2016-07-12T01:53:15.557Z,20.13
2016-07-12T01:54:15.580Z,20.28
2016-07-12T01:55:15.608Z,20.2
2016-07-12T01:56:15.631Z,20.18
2016-07-12T01:57:30.576Z,20.2
2016-07-12T01:58:15.691Z,20.28
2016-07-12T01:59:15.718Z,20.23
2016-07-12T02:00:15.743Z,20.23
2016-07-12T02:01:15.774Z,20.28
2016-07-12T02:02:15.803Z,20.23
2016-07-12T02:03:15.828Z,20.2
2016-07-12T02:05:15.889Z,20.24
2016-07-12T02:06:15.906Z,20.24
2016-07-12T02:07:15.944Z,20.13
2016-07-12T02:08:15.962Z,20.11
2016-07-12T02:11:16.052Z,20.11
2016-07-12T02:12:16.084Z,20.13
2016-07-12T02:13:16.103Z,20.1
2016-07-12T02:14:16.126Z,20.17
2016-07-12T02:15:16.162Z,20.28
2016-07-12T02:16:31.103Z,20.13
2016-07-12T02:18:16.237Z,20.23
2016-07-12T02:19:16.273Z,20.08
2016-07-12T02:20:16.300Z,20.06
2016-07-12T02:21:16.332Z,20.01
2016-07-12T02:22:16.351Z,20.1
2016-07-12T02:25:16.435Z,20.1
2016-07-12T02:26:16.461Z,20.14
2016-07-12T02:27:16.493Z,20.08
2016-07-12T02:28:16.512Z,20.03
2016-07-12T02:30:16.570Z,20.06
2016-07-12T02:31:31.517Z,20.17
2016-07-12T02:32:16.627Z,20.14
2016-07-12T02:33:16.653Z,20.03
2016-07-12T02:34:16.681Z,20.08
2016-07-12T02:35:16.708Z,20.06
2016-07-12T02:36:31.663Z,20.1
2016-07-12T02:37:16.764Z,20.02
2016-07-12T02:38:16.794Z,20.03
2016-07-12T02:39:16.819Z,20.05
2016-07-12T02:40:16.848Z,20.05
2016-07-12T02:41:16.871Z,19.99
2016-07-12T02:42:16.902Z,20.05
2016-07-12T02:44:16.955Z,20.13
2016-07-12T02:46:17.010Z,20.03
2016-07-12T02:47:17.034Z,20.01
2016-07-12T02:48:17.066Z,20.08
2016-07-12T02:49:17.093Z,20.06
2016-07-12T02:51:32.060Z,20.16
2016-07-12T02:52:32.089Z,20.06
2016-07-12T02:53:17.203Z,20.1
2016-07-12T02:54:17.233Z,20.06
2016-07-12T02:55:17.254Z,20.01
2016-07-12T02:56:17.288Z,19.96
2016-07-12T02:57:17.370Z,19.98
2016-07-12T02:58:17.341Z,19.98
2016-07-12T02:59:17.376Z,20.01
2016-07-12T03:00:17.397Z,19.98
2016-07-12T03:01:32.340Z,19.96
2016-07-12T03:02:17.454Z,19.98
2016-07-12T03:03:32.395Z,20.01
2016-07-12T03:04:17.504Z,19.99
2016-07-12T03:05:17.531Z,19.95
2016-07-12T03:06:17.563Z,19.96
2016-07-12T03:07:17.593Z,19.98
2016-07-12T03:08:17.609Z,20.03
2016-07-12T03:10:17.674Z,20.17
2016-07-12T03:11:17.699Z,20.08
2016-07-12T03:14:17.781Z,20.2
2016-07-12T03:15:17.807Z,20.16
2016-07-12T03:16:18.539Z,20.18
2016-07-12T03:17:32.777Z,20.21
2016-07-12T03:18:17.887Z,20.26
2016-07-12T03:19:17.918Z,20.2
2016-07-12T03:20:17.941Z,20.28
2016-07-12T03:21:17.976Z,20.23
2016-07-12T03:22:18.700Z,20.26
2016-07-12T03:23:18.028Z,20.24
2016-07-12T03:24:18.055Z,20.21
2016-07-12T03:25:33.011Z,20.21
2016-07-12T03:26:18.818Z,20.31
2016-07-12T03:28:18.168Z,20.28
2016-07-12T03:29:18.196Z,20.29
2016-07-12T03:30:18.217Z,20.41
2016-07-12T03:31:18.254Z,20.41
2016-07-12T03:32:33.193Z,20.41
2016-07-12T03:33:18.303Z,20.26
2016-07-12T03:34:18.326Z,20.39
2016-07-12T03:35:19.062Z,20.38
2016-07-12T03:36:18.381Z,20.31
2016-07-12T03:37:18.414Z,20.42
2016-07-12T03:38:18.442Z,20.43
2016-07-12T03:39:33.380Z,20.5
2016-07-12T03:40:18.501Z,20.38
2016-07-12T03:41:18.526Z,20.43
2016-07-12T03:42:18.556Z,20.41
2016-07-12T03:43:18.585Z,20.51
2016-07-12T03:45:18.640Z,20.43
2016-07-12T03:46:18.661Z,20.47
2016-07-12T03:47:18.695Z,20.41
2016-07-12T03:48:18.721Z,20.47
2016-07-12T03:49:18.747Z,20.41
2016-07-12T03:50:18.783Z,20.51
2016-07-12T03:51:18.804Z,20.66
2016-07-12T03:52:18.831Z,20.57
2016-07-12T03:53:18.858Z,20.59
2016-07-12T03:54:18.881Z,20.72
2016-07-12T03:55:18.910Z,20.72
2016-07-12T03:56:18.934Z,20.69
2016-07-12T03:58:18.991Z,20.67
2016-07-12T03:59:19.019Z,20.7
2016-07-12T04:01:19.073Z,20.72
2016-07-12T04:02:19.101Z,20.72
2016-07-12T04:03:19.130Z,20.76
2016-07-12T04:04:34.074Z,20.69
2016-07-12T04:05:19.179Z,20.7
2016-07-12T04:06:19.208Z,20.69
2016-07-12T04:07:19.237Z,20.76
2016-07-12T04:08:19.271Z,20.79
2016-07-12T04:09:19.297Z,20.8
2016-07-12T04:10:19.329Z,20.84
2016-07-12T04:11:19.345Z,20.84
2016-07-12T04:12:19.379Z,20.87
2016-07-12T04:13:19.397Z,20.88
2016-07-12T04:14:19.435Z,20.97
2016-07-12T04:15:19.456Z,20.95
2016-07-12T04:16:19.488Z,20.97
2016-07-12T04:17:20.226Z,20.95
2016-07-12T04:18:19.542Z,20.94
2016-07-12T04:19:34.489Z,21.04
2016-07-12T04:20:34.514Z,21.06
2016-07-12T04:21:19.629Z,21.07
2016-07-12T04:22:19.658Z,21.19
2016-07-12T04:23:19.681Z,21.19
2016-07-12T04:24:19.706Z,21.19
2016-07-12T04:25:19.733Z,21.17
2016-07-12T04:26:19.774Z,21.24
2016-07-12T04:28:19.812Z,21.21
2016-07-12T04:29:19.844Z,21.28
2016-07-12T04:30:19.873Z,21.27
2016-07-12T04:31:19.901Z,21.21
2016-07-12T04:32:19.931Z,21.24
2016-07-12T04:33:19.965Z,21.28
2016-07-12T04:34:19.993Z,21.29
2016-07-12T04:35:20.004Z,21.38
2016-07-12T04:37:20.061Z,21.46
2016-07-12T04:38:35.007Z,21.44
2016-07-12T04:39:20.121Z,21.49
2016-07-12T04:41:35.089Z,21.64
2016-07-12T04:42:35.116Z,21.52
2016-07-12T04:43:20.236Z,21.56
2016-07-12T04:44:20.256Z,21.5
2016-07-12T04:45:20.287Z,21.61
2016-07-12T04:46:20.314Z,21.46
2016-07-12T04:47:20.335Z,21.61
2016-07-12T04:48:20.374Z,21.49
2016-07-12T04:49:20.398Z,21.56
2016-07-12T04:50:20.470Z,21.54
2016-07-12T04:51:20.457Z,21.53
2016-07-12T04:52:35.402Z,21.54
2016-07-12T04:53:20.503Z,21.54
2016-07-12T04:54:35.453Z,21.5
2016-07-12T04:55:20.564Z,21.61
2016-07-12T04:56:20.589Z,21.52
2016-07-12T04:57:20.621Z,21.59
2016-07-12T04:58:20.643Z,21.62
2016-07-12T04:59:35.584Z,21.72
2016-07-12T05:00:20.697Z,21.72
2016-07-12T05:01:20.733Z,21.74
2016-07-12T05:02:20.764Z,21.75
2016-07-12T05:03:20.837Z,21.83
2016-07-12T05:04:20.811Z,21.9
2016-07-12T05:05:20.845Z,21.88
2016-07-12T05:06:20.867Z,21.86
2016-07-12T05:07:35.810Z,21.83
2016-07-12T05:08:20.920Z,21.8
2016-07-12T05:09:20.948Z,21.96
2016-07-12T05:10:20.974Z,22
2016-07-12T05:11:21.005Z,21.99
2016-07-12T05:12:21.032Z,22
2016-07-12T05:13:21.072Z,22.02
2016-07-12T05:14:21.092Z,21.99
2016-07-12T05:15:21.127Z,22.09
2016-07-12T05:16:21.146Z,22.17
2016-07-12T05:17:21.169Z,22.05
2016-07-12T05:18:21.208Z,22.21
2016-07-12T05:19:21.239Z,22.22
2016-07-12T05:20:21.260Z,22.28
2016-07-12T05:21:21.985Z,22.25
2016-07-12T05:22:21.311Z,22.3
2016-07-12T05:23:21.338Z,22.17
2016-07-12T05:24:21.367Z,22.24
2016-07-12T05:25:21.399Z,22.24
2016-07-12T05:26:21.428Z,22.27
2016-07-12T05:27:21.450Z,22.25
2016-07-12T05:28:21.482Z,22.2
2016-07-12T05:29:21.511Z,22.14
2016-07-12T05:30:21.538Z,22.09
2016-07-12T05:32:21.604Z,22.15
2016-07-12T05:33:21.619Z,22.03
2016-07-12T05:34:21.663Z,22.15
2016-07-12T05:35:21.680Z,22.22
2016-07-12T05:36:21.708Z,22.28
2016-07-12T05:37:21.737Z,22.39
2016-07-12T05:38:21.764Z,22.45
2016-07-12T05:39:36.701Z,22.52
2016-07-12T05:40:21.811Z,22.58
2016-07-12T05:41:36.761Z,22.57
2016-07-12T05:42:36.785Z,22.54
2016-07-12T05:43:36.812Z,22.39
2016-07-12T05:44:21.928Z,22.46
2016-07-12T05:45:21.936Z,22.47
2016-07-12T05:46:21.965Z,22.46
2016-07-12T05:47:22.001Z,22.36
2016-07-12T05:48:22.013Z,22.45
2016-07-12T05:49:22.051Z,22.55
2016-07-12T05:50:22.077Z,22.52
2016-07-12T05:51:22.101Z,22.55
2016-07-12T05:52:22.135Z,22.76
2016-07-12T05:53:37.079Z,22.76
2016-07-12T05:54:22.187Z,22.75
2016-07-12T05:55:37.132Z,22.67
2016-07-12T05:56:22.242Z,22.73
2016-07-12T05:57:22.269Z,22.8
2016-07-12T05:58:22.291Z,22.8
2016-07-12T05:59:22.323Z,22.76
2016-07-12T06:00:22.341Z,22.79
2016-07-12T06:01:22.375Z,22.68
2016-07-12T06:02:22.412Z,22.79
2016-07-12T06:03:22.428Z,22.79
2016-07-12T06:06:22.510Z,22.92
2016-07-12T06:08:37.495Z,22.94
2016-07-12T06:09:22.603Z,22.95
2016-07-12T06:10:22.629Z,22.7
2016-07-12T06:11:37.580Z,22.68
2016-07-12T06:12:22.684Z,22.54
2016-07-12T06:13:22.715Z,22.52
2016-07-12T06:14:22.743Z,22.52
2016-07-12T06:15:22.770Z,22.64
2016-07-12T06:16:22.804Z,22.7
2016-07-12T06:17:22.829Z,22.8
2016-07-12T06:18:22.856Z,22.8
2016-07-12T06:19:22.882Z,22.8
2016-07-12T06:20:22.906Z,22.68
2016-07-12T06:21:22.931Z,22.76
2016-07-12T06:23:37.920Z,22.86
2016-07-12T06:24:23.018Z,22.9
2016-07-12T06:25:23.051Z,22.91
2016-07-12T06:26:23.074Z,22.92
2016-07-12T06:27:38.035Z,22.75
2016-07-12T06:28:23.134Z,22.72
2016-07-12T06:29:23.162Z,22.67
2016-07-12T06:30:23.191Z,22.7
2016-07-12T06:31:23.234Z,22.54
2016-07-12T06:32:23.250Z,22.49
2016-07-12T06:33:23.278Z,22.43
2016-07-12T06:34:23.304Z,22.45
2016-07-12T06:35:23.330Z,22.47
2016-07-12T06:36:23.359Z,22.45
2016-07-12T06:37:23.384Z,22.24
2016-07-12T06:38:38.345Z,22.31
2016-07-12T06:40:38.400Z,22.22
2016-07-12T06:41:23.503Z,22.28
2016-07-12T06:42:38.455Z,22.24
2016-07-12T06:43:23.559Z,22.31
2016-07-12T06:44:23.589Z,22.3
2016-07-12T06:45:23.620Z,22.2
2016-07-12T06:46:23.643Z,22.27
2016-07-12T06:47:23.667Z,22.21
2016-07-12T06:48:23.701Z,22.31
2016-07-12T06:49:23.725Z,22.21
2016-07-12T06:50:23.770Z,22.24
2016-07-12T06:51:23.785Z,22.25
2016-07-12T06:52:23.814Z,22.3
2016-07-12T06:53:23.841Z,22.39
2016-07-12T06:54:23.873Z,22.52
2016-07-12T06:55:23.899Z,22.61
2016-07-12T06:56:23.922Z,22.55
2016-07-12T06:57:23.954Z,22.57
2016-07-12T06:58:23.981Z,22.54
2016-07-12T06:59:38.930Z,22.68
2016-07-12T07:00:24.035Z,22.68
2016-07-12T07:01:24.058Z,22.77
2016-07-12T07:02:24.092Z,22.97
2016-07-12T07:03:24.118Z,23
2016-07-12T07:04:24.153Z,23.04
2016-07-12T07:05:24.180Z,23.23
2016-07-12T07:06:24.202Z,23.25
2016-07-12T07:07:24.227Z,23.31
2016-07-12T07:08:24.261Z,23.38
2016-07-12T07:09:24.286Z,23.48
2016-07-12T07:10:24.320Z,23.32
2016-07-12T07:11:24.352Z,23.46
2016-07-12T07:12:24.378Z,23.66
2016-07-12T07:13:24.401Z,23.8
2016-07-12T07:14:39.353Z,23.88
2016-07-12T07:15:39.382Z,23.87
2016-07-12T07:16:24.493Z,23.69
2016-07-12T07:17:24.516Z,23.63
2016-07-12T07:18:24.548Z,23.7
2016-07-12T07:19:24.570Z,23.7
2016-07-12T07:20:24.607Z,23.57
2016-07-12T07:21:24.635Z,23.54
2016-07-12T07:22:24.660Z,23.68
2016-07-12T07:23:24.688Z,23.9
2016-07-12T07:24:24.895Z,24
2016-07-12T07:25:24.749Z,24.15
2016-07-12T07:26:24.774Z,24.37
2016-07-12T07:28:24.831Z,24.57
2016-07-12T07:29:24.855Z,24.73
2016-07-12T07:30:39.812Z,24.87
2016-07-12T07:31:24.918Z,24.91
2016-07-12T07:32:24.949Z,24.91
2016-07-12T07:33:24.972Z,25.03
2016-07-12T07:34:25.005Z,24.78
2016-07-12T07:35:25.033Z,24.87
2016-07-12T07:36:25.062Z,24.8
2016-07-12T07:37:25.088Z,24.65
2016-07-12T07:38:25.119Z,24.9
2016-07-12T07:40:25.180Z,24.98
2016-07-12T07:41:25.206Z,24.95
2016-07-12T07:42:25.234Z,24.99
2016-07-12T07:43:25.265Z,24.99
2016-07-12T07:45:25.322Z,25.02
2016-07-12T07:46:40.276Z,25.03
2016-07-12T07:47:25.381Z,25.27
2016-07-12T07:48:25.407Z,25.25
2016-07-12T07:49:25.447Z,25.3
2016-07-12T07:50:25.470Z,25.45
2016-07-12T07:51:25.497Z,25.43
2016-07-12T07:52:25.531Z,25.21
2016-07-12T07:53:25.560Z,25.15
2016-07-12T07:54:26.285Z,24.85
2016-07-12T07:55:25.623Z,24.55
2016-07-12T07:56:25.644Z,24.5
2016-07-12T07:57:25.675Z,24.42
2016-07-12T07:58:40.632Z,24.45
2016-07-12T07:59:40.659Z,24.61
2016-07-12T08:00:25.762Z,24.6
2016-07-12T08:01:25.802Z,24.57
2016-07-12T08:02:40.745Z,24.6
2016-07-12T08:03:25.850Z,24.62
2016-07-12T08:04:25.878Z,24.76
2016-07-12T08:05:25.905Z,25
2016-07-12T08:06:25.940Z,25.06
2016-07-12T08:07:25.962Z,25.2
2016-07-12T08:08:25.998Z,25.15
2016-07-12T08:09:26.023Z,25.24
2016-07-12T08:10:26.052Z,25.17
2016-07-12T08:11:26.085Z,25.14
2016-07-12T08:12:26.106Z,25.05
2016-07-12T08:13:26.143Z,25.08
2016-07-12T08:14:26.168Z,25.17
2016-07-12T08:16:26.231Z,24.77
2016-07-12T08:17:41.183Z,24.78
2016-07-12T08:18:26.290Z,24.76
2016-07-12T08:19:26.319Z,24.83
2016-07-12T08:20:26.356Z,24.69
2016-07-12T08:21:26.376Z,24.68
2016-07-12T08:22:26.402Z,24.52
2016-07-12T08:23:26.431Z,24.49
2016-07-12T08:24:26.460Z,24.42
2016-07-12T08:25:26.501Z,24.47
2016-07-12T08:26:26.521Z,24.45
2016-07-12T08:27:26.555Z,24.42
2016-07-12T08:28:26.583Z,24.43
2016-07-12T08:29:26.608Z,24.43
2016-07-12T08:30:26.642Z,24.42
2016-07-12T08:32:26.706Z,24.57
2016-07-12T08:33:26.737Z,24.64
2016-07-12T08:34:26.763Z,24.73
2016-07-12T08:35:26.783Z,24.87
2016-07-12T08:36:26.820Z,24.95
2016-07-12T08:37:26.849Z,25.17
2016-07-12T08:38:26.877Z,25.43
2016-07-12T08:39:26.911Z,25.54
2016-07-12T08:40:26.936Z,25.62
2016-07-12T08:41:26.957Z,25.85
2016-07-12T08:43:27.022Z,26.3
2016-07-12T08:46:27.120Z,26.75
2016-07-12T08:47:27.150Z,26.77
2016-07-12T08:48:27.171Z,27
2016-07-12T08:49:42.124Z,27.27
2016-07-12T08:50:27.924Z,27.4
2016-07-12T08:51:27.259Z,27.81
2016-07-12T08:53:27.319Z,28.31
2016-07-12T08:54:27.355Z,28.25
2016-07-12T08:55:27.381Z,28.03
2016-07-12T08:56:27.414Z,28.49
2016-07-12T08:57:27.443Z,28.59
2016-07-12T08:58:27.470Z,28.48
2016-07-12T08:59:27.502Z,28.11
2016-07-12T09:00:27.530Z,28.02
2016-07-12T09:01:27.564Z,27.93
2016-07-12T09:02:42.523Z,27.75
2016-07-12T09:03:27.623Z,27.66
2016-07-12T09:04:27.653Z,27.4
2016-07-12T09:05:42.614Z,27.87
2016-07-12T09:06:27.769Z,28.07
2016-07-12T09:07:27.755Z,28.12
2016-07-12T09:08:27.784Z,28.11
2016-07-12T09:09:27.808Z,28.64
2016-07-12T09:10:27.840Z,29.49
2016-07-12T09:11:27.873Z,30.35
2016-07-12T09:12:27.901Z,31.39
2016-07-12T09:13:27.931Z,31.51
2016-07-12T09:14:27.965Z,31.63
2016-07-12T09:15:27.998Z,31.46
2016-07-12T09:16:28.034Z,31.06
2016-07-12T09:17:28.070Z,31.07
2016-07-12T09:18:28.089Z,30.67
2016-07-12T09:20:28.153Z,30.27
2016-07-12T09:21:43.114Z,30.15
2016-07-12T09:22:28.213Z,30.16
2016-07-12T09:24:28.278Z,29.85
2016-07-12T09:25:28.307Z,29.52
2016-07-12T09:26:28.341Z,29.23
2016-07-12T09:27:28.379Z,30.05
2016-07-12T09:28:28.401Z,30.99
2016-07-12T09:30:28.475Z,31.54
2016-07-12T09:31:28.500Z,31.85
2016-07-12T09:32:28.537Z,32.18
2016-07-12T09:33:28.563Z,32.19
2016-07-12T09:34:28.592Z,32.32
2016-07-12T09:35:28.631Z,32.25
2016-07-12T09:36:43.586Z,32.21
2016-07-12T09:37:43.618Z,31.76
2016-07-12T09:38:28.725Z,31.75
2016-07-12T09:39:28.754Z,31.72
2016-07-12T09:40:28.784Z,31.73
2016-07-12T09:41:28.819Z,31.65
2016-07-12T09:42:28.847Z,31.88
2016-07-12T09:43:28.883Z,31.78
2016-07-12T09:44:28.914Z,31.04
2016-07-12T09:45:28.950Z,30.79
2016-07-12T09:46:28.985Z,30.61
2016-07-12T09:47:29.023Z,30.31
2016-07-12T09:48:29.045Z,30.08
2016-07-12T09:49:29.074Z,30.27
2016-07-12T09:50:29.113Z,30.29
2016-07-12T09:51:29.143Z,29.78
2016-07-12T09:52:44.101Z,29.61
2016-07-12T09:53:29.209Z,29.51
2016-07-12T09:54:29.237Z,29.61
2016-07-12T09:55:29.274Z,30.15
2016-07-12T09:56:29.300Z,30.88
2016-07-12T09:57:29.332Z,31.54
2016-07-12T09:58:29.361Z,32.01
2016-07-12T09:59:29.398Z,32.93
2016-07-12T10:00:29.430Z,33.75
2016-07-12T10:01:29.457Z,33.91
2016-07-12T10:02:29.487Z,33.72
2016-07-12T10:03:29.526Z,33.37
2016-07-12T10:04:29.552Z,33.12
2016-07-12T10:05:29.591Z,33.18
2016-07-12T10:06:29.624Z,32.78
2016-07-12T10:07:29.656Z,32.37
2016-07-12T10:08:29.682Z,32.14
2016-07-12T10:09:29.715Z,32.04
2016-07-12T10:10:29.746Z,31.61
2016-07-12T10:11:29.785Z,31.53
2016-07-12T10:12:29.806Z,31.99
2016-07-12T10:13:29.881Z,32.48
2016-07-12T10:14:29.882Z,32.65
2016-07-12T10:15:29.910Z,32.62
2016-07-12T10:16:29.941Z,32.93
2016-07-12T10:17:29.970Z,32.99
2016-07-12T10:18:30.007Z,33.51
2016-07-12T10:19:30.036Z,33.45
2016-07-12T10:20:30.070Z,33.29
2016-07-12T10:21:30.110Z,32.85
2016-07-12T10:22:30.130Z,33.11
2016-07-12T10:23:30.163Z,33.32
2016-07-12T10:24:45.122Z,33.23
2016-07-12T10:25:30.236Z,33.45
2016-07-12T10:26:30.264Z,33.59
2016-07-12T10:27:30.296Z,33.54
2016-07-12T10:28:30.345Z,33.71
2016-07-12T10:29:30.365Z,33.84
2016-07-12T10:32:30.452Z,32.37
2016-07-12T10:33:30.489Z,32.44
2016-07-12T10:35:22.465Z,32.13
2016-07-12T10:35:31.041Z,32.1
2016-07-12T10:36:31.074Z,31.95
2016-07-12T10:37:31.116Z,31.73
2016-07-12T10:38:31.143Z,31.91
2016-07-12T10:39:31.176Z,32.07
2016-07-12T10:40:31.207Z,31.92
2016-07-12T10:41:31.235Z,32.18
2016-07-12T10:42:31.269Z,32.15
2016-07-12T10:43:31.304Z,32.1
2016-07-12T10:44:31.346Z,31.7
2016-07-12T10:45:46.295Z,31.51
2016-07-12T10:46:31.404Z,31.54
2016-07-12T10:47:46.357Z,31.01
2016-07-12T10:48:31.464Z,31.1
2016-07-12T10:49:31.496Z,31.19
2016-07-12T10:50:31.526Z,31.38
2016-07-12T10:51:31.561Z,30.83
2016-07-12T10:52:31.593Z,31.07
2016-07-12T10:53:31.624Z,31.25
2016-07-12T10:54:31.661Z,31.36
2016-07-12T10:55:31.688Z,31.38
2016-07-12T10:56:31.726Z,31.25
2016-07-12T10:57:46.683Z,31.19
2016-07-12T10:59:31.824Z,31.25
2016-07-12T11:00:31.853Z,31.47
2016-07-12T11:01:46.809Z,31.48
2016-07-12T11:02:31.919Z,31.47
2016-07-12T11:03:31.947Z,31.73
2016-07-12T11:04:31.975Z,30.73
2016-07-12T11:05:32.016Z,30.8
2016-07-12T11:06:32.049Z,30.8
2016-07-12T11:07:32.128Z,30.27
2016-07-12T11:08:32.113Z,30.51
2016-07-12T11:09:32.143Z,29.85
2016-07-12T11:10:32.166Z,29.55
2016-07-12T11:11:32.204Z,29.71
2016-07-12T11:12:32.233Z,30.01
2016-07-12T11:15:32.343Z,30.17
2016-07-12T11:16:32.361Z,30.24
2016-07-12T11:17:47.321Z,30.22
2016-07-12T11:18:32.428Z,29.94
2016-07-12T11:19:32.460Z,29.82
2016-07-12T11:20:32.485Z,29.8
2016-07-12T11:21:32.520Z,30.02
2016-07-12T11:22:32.549Z,30.39
2016-07-12T11:23:32.585Z,30.51
2016-07-12T11:24:32.614Z,30.55
2016-07-12T11:25:32.639Z,30.79
2016-07-12T11:26:32.676Z,30.79
2016-07-12T11:27:32.710Z,31.07
2016-07-12T11:28:32.741Z,31.25
2016-07-12T11:29:32.766Z,31.28
2016-07-12T11:30:32.801Z,30.6
2016-07-12T11:31:47.762Z,30.27
2016-07-12T11:32:32.869Z,30.26
2016-07-12T11:33:47.820Z,30.42
2016-07-12T11:34:32.935Z,30.45
2016-07-12T11:35:47.885Z,30.43
2016-07-12T11:36:32.993Z,30.51
2016-07-12T11:37:33.024Z,30.95
2016-07-12T11:38:33.051Z,31.47
2016-07-12T11:39:33.086Z,31.5
2016-07-12T11:40:33.118Z,31.68
2016-07-12T11:41:33.152Z,31.62
2016-07-12T11:42:33.186Z,31.69
2016-07-12T11:43:33.216Z,31.7
2016-07-12T11:44:33.240Z,31.62
2016-07-12T11:45:33.278Z,31.46
2016-07-12T11:46:33.307Z,31.34
2016-07-12T11:47:33.343Z,31.32
2016-07-12T11:48:33.378Z,31.51
2016-07-12T11:49:48.328Z,31.62
2016-07-12T11:50:33.429Z,31.41
2016-07-12T11:51:33.465Z,31.35
2016-07-12T11:52:33.505Z,31.01
2016-07-12T11:53:34.224Z,30.76
2016-07-12T11:54:33.570Z,30.83
2016-07-12T11:55:33.601Z,30.67
2016-07-12T11:56:33.622Z,30.86
2016-07-12T11:57:33.653Z,30.95
2016-07-12T11:58:33.684Z,31.06
2016-07-12T11:59:33.718Z,31.29
2016-07-12T12:00:34.448Z,31.04
2016-07-12T12:01:33.787Z,30.88
2016-07-12T12:02:33.811Z,31.06
2016-07-12T12:03:33.849Z,31.28
2016-07-12T12:04:48.803Z,30.84
2016-07-12T12:05:48.835Z,30.95
2016-07-12T12:06:33.934Z,30.84
2016-07-12T12:07:33.966Z,30.92
2016-07-12T12:08:34.002Z,30.92
2016-07-12T12:09:34.038Z,30.57
2016-07-12T12:11:34.094Z,30.29
2016-07-12T12:12:34.131Z,30.26
2016-07-12T12:13:34.154Z,30.13
2016-07-12T12:14:34.186Z,30.32
2016-07-12T12:15:34.223Z,30.55
2016-07-12T12:16:34.256Z,30.45
2016-07-12T12:17:34.283Z,30.55
2016-07-12T12:18:34.310Z,30.69
2016-07-12T12:19:34.349Z,30.67
2016-07-12T12:20:49.304Z,30.42
2016-07-12T12:21:34.412Z,30.42
2016-07-12T12:23:34.474Z,30.86
2016-07-12T12:25:34.541Z,31.02
2016-07-12T12:26:34.574Z,30.92
2016-07-12T12:27:34.604Z,30.77
2016-07-12T12:28:34.631Z,30.79
2016-07-12T12:29:34.668Z,31.02
2016-07-12T12:30:34.694Z,31.04
2016-07-12T12:32:34.765Z,31.31
2016-07-12T12:33:34.791Z,31.06
2016-07-12T12:34:34.821Z,30.94
2016-07-12T12:35:34.849Z,30.94
2016-07-12T12:36:49.808Z,31.04
2016-07-12T12:37:34.917Z,31.06
2016-07-12T12:38:34.956Z,31.23
2016-07-12T12:39:34.976Z,31.43
2016-07-12T12:40:35.002Z,31.57
2016-07-12T12:41:35.040Z,31.69
2016-07-12T12:42:35.078Z,31.73
2016-07-12T12:43:35.096Z,31.73
2016-07-12T12:44:35.139Z,31.58
2016-07-12T12:45:35.168Z,31.34
2016-07-12T12:46:35.192Z,31.21
2016-07-12T12:47:35.230Z,31.29
2016-07-12T12:49:35.292Z,30.82
2016-07-12T12:50:50.258Z,30.8
2016-07-12T12:51:35.359Z,30.64
2016-07-12T12:52:50.316Z,30.32
2016-07-12T12:53:35.415Z,30.38
2016-07-12T12:54:35.461Z,30.26
2016-07-12T12:55:35.485Z,29.95
2016-07-12T12:56:35.513Z,29.95
2016-07-12T12:57:35.540Z,29.86
2016-07-12T12:58:35.576Z,29.74
2016-07-12T12:59:35.611Z,29.86
2016-07-12T13:00:35.633Z,29.82
2016-07-12T13:01:35.680Z,29.83
2016-07-12T13:02:35.706Z,29.82
2016-07-12T13:03:35.732Z,29.97
2016-07-12T13:04:35.769Z,29.95
2016-07-12T13:05:35.798Z,29.74
2016-07-12T13:07:35.875Z,30.02
2016-07-12T13:08:50.816Z,30.11
2016-07-12T13:09:35.922Z,30.19
2016-07-12T13:10:35.957Z,30.45
2016-07-12T13:11:35.979Z,30.58
2016-07-12T13:12:36.015Z,30.61
2016-07-12T13:13:36.048Z,30.54
2016-07-12T13:14:36.080Z,30.55
2016-07-12T13:15:36.107Z,30.58
2016-07-12T13:16:36.136Z,30.62
2016-07-12T13:17:36.173Z,30.83
2016-07-12T13:18:36.201Z,30.83
2016-07-12T13:19:36.235Z,30.94
2016-07-12T13:20:36.259Z,30.79
2016-07-12T13:21:36.297Z,31.04
2016-07-12T13:22:36.329Z,31.01
2016-07-12T13:24:51.316Z,31.25
2016-07-12T13:25:51.343Z,31.39
2016-07-12T13:26:36.463Z,31.5
2016-07-12T13:27:36.480Z,31.51
2016-07-12T13:28:36.515Z,31.47
2016-07-12T13:29:36.552Z,31.34
2016-07-12T13:30:36.577Z,31.2
2016-07-12T13:31:36.610Z,31.25
2016-07-12T13:32:36.636Z,30.8
2016-07-12T13:33:36.673Z,30.77
2016-07-12T13:34:36.704Z,30.69
2016-07-12T13:35:51.662Z,30.82
2016-07-12T13:36:36.761Z,30.76
2016-07-12T13:37:36.794Z,30.79
2016-07-12T13:38:36.830Z,30.49
2016-07-12T13:39:37.567Z,30.31
2016-07-12T13:40:51.819Z,30.49
2016-07-12T13:41:36.924Z,30.37
2016-07-12T13:42:36.953Z,30.43
2016-07-12T13:43:37.705Z,30.39
2016-07-12T13:44:37.015Z,30.23
2016-07-12T13:45:37.055Z,30.45
2016-07-12T13:46:37.084Z,30.65
2016-07-12T13:47:37.109Z,30.88
2016-07-12T13:48:37.148Z,31.07
2016-07-12T13:49:37.175Z,30.98
2016-07-12T13:50:37.206Z,30.8
2016-07-12T13:52:37.272Z,30.77
2016-07-12T13:53:37.300Z,30.73
2016-07-12T13:54:37.336Z,30.38